createdAt,value
2023-01-27T00:00:13.457Z,6.40
2023-01-27T00:02:40.560Z,6.73
2023-01-27T00:05:07.993Z,5.83
2023-01-27T00:07:34.547Z,6.70
2023-01-27T00:10:00.672Z,5.90
2023-01-27T00:12:45.835Z,5.60
2023-01-27T00:15:13.176Z,5.33
2023-01-27T00:17:39.707Z,5.53
2023-01-27T00:20:06.694Z,6.00
2023-01-27T00:22:50.998Z,5.70
2023-01-27T00:25:17.583Z,5.10
2023-01-27T00:27:44.128Z,4.60
2023-01-27T00:30:11.387Z,4.80
2023-01-27T00:32:56.439Z,5.10
2023-01-27T00:35:23.010Z,5.10
2023-01-27T00:37:49.417Z,5.90
2023-01-27T00:40:16.379Z,5.43
2023-01-27T00:42:43.105Z,5.70
2023-01-27T00:45:28.257Z,6.27
2023-01-27T00:47:54.562Z,5.23
2023-01-27T00:50:21.014Z,6.20
2023-01-27T00:52:47.268Z,5.57
2023-01-27T00:55:15.261Z,5.40
2023-01-27T00:57:42.027Z,5.50
2023-01-27T01:00:09.317Z,5.70
2023-01-27T01:02:35.737Z,5.17
2023-01-27T01:05:02.820Z,5.63
2023-01-27T01:07:28.867Z,5.03
2023-01-27T01:09:55.446Z,5.27
2023-01-27T01:12:21.689Z,5.03
2023-01-27T01:14:47.743Z,5.10
2023-01-27T01:17:13.775Z,5.27
2023-01-27T01:19:39.810Z,5.53
2023-01-27T01:22:05.906Z,4.97
2023-01-27T01:24:31.947Z,5.07
2023-01-27T01:26:57.972Z,5.70
2023-01-27T01:29:24.163Z,4.83
2023-01-27T01:31:50.863Z,4.23
2023-01-27T01:34:16.934Z,4.70
2023-01-27T01:36:42.972Z,5.03
2023-01-27T01:39:09.073Z,5.27
2023-01-27T01:41:35.111Z,5.07
2023-01-27T01:44:24.365Z,5.60
2023-01-27T01:46:50.478Z,5.27
2023-01-27T01:49:18.323Z,5.77
2023-01-27T01:51:48.396Z,5.53
2023-01-27T01:54:17.438Z,5.97
2023-01-27T01:56:48.994Z,5.53
2023-01-27T01:59:19.205Z,5.53
2023-01-27T02:01:45.674Z,5.27
2023-01-27T02:04:16.219Z,5.00
2023-01-27T02:06:52.084Z,5.10
2023-01-27T02:09:20.020Z,4.70
2023-01-27T02:11:46.122Z,5.50
2023-01-27T02:14:13.226Z,5.60
2023-01-27T02:16:39.872Z,5.20
2023-01-27T02:19:37.855Z,5.50
2023-01-27T02:22:05.611Z,4.83
2023-01-27T02:24:38.291Z,5.00
2023-01-27T02:27:04.594Z,5.23
2023-01-27T02:29:30.673Z,4.60
2023-01-27T02:31:56.738Z,5.10
2023-01-27T02:34:26.567Z,5.00
2023-01-27T02:36:54.799Z,4.70
2023-01-27T02:39:24.627Z,4.20
2023-01-27T02:41:52.632Z,4.40
2023-01-27T02:44:18.717Z,4.17
2023-01-27T02:46:44.799Z,5.10
2023-01-27T02:49:10.957Z,4.50
2023-01-27T02:51:37.020Z,4.50
2023-01-27T02:54:03.103Z,4.73
2023-01-27T02:56:29.224Z,4.83
2023-01-27T02:58:55.735Z,5.03
2023-01-27T03:01:23.579Z,4.70
2023-01-27T03:03:50.630Z,5.10
2023-01-27T03:06:17.422Z,5.13
2023-01-27T03:08:43.799Z,5.10
2023-01-27T03:11:10.447Z,5.43
2023-01-27T03:13:36.978Z,5.40
2023-01-27T03:16:23.321Z,4.90
2023-01-27T03:18:50.107Z,5.40
2023-01-27T03:21:17.471Z,6.10
2023-01-27T03:23:45.293Z,6.13
2023-01-27T03:26:11.881Z,5.30
2023-01-27T03:28:37.926Z,6.77
2023-01-27T03:31:06.737Z,6.40
2023-01-27T03:33:33.055Z,6.20
2023-01-27T03:36:21.114Z,7.00
2023-01-27T03:39:05.559Z,6.40
2023-01-27T03:41:50.321Z,6.30
2023-01-27T03:44:34.649Z,6.10
2023-01-27T03:47:01.098Z,7.13
2023-01-27T03:49:27.138Z,6.60
2023-01-27T03:51:53.211Z,7.40
2023-01-27T03:54:19.297Z,6.80
2023-01-27T03:56:47.196Z,6.70
2023-01-27T03:59:13.859Z,6.10
2023-01-27T04:01:39.952Z,6.10
2023-01-27T04:04:24.464Z,6.37
2023-01-27T04:07:02.074Z,6.20
2023-01-27T04:09:30.450Z,6.27
2023-01-27T04:11:58.301Z,5.33
2023-01-27T04:14:31.426Z,5.27
2023-01-27T04:17:10.886Z,5.97
2023-01-27T04:19:36.999Z,6.60
2023-01-27T04:22:04.295Z,5.30
2023-01-27T04:24:30.634Z,5.73
2023-01-27T04:26:59.147Z,6.00
2023-01-27T04:29:30.279Z,6.23
2023-01-27T04:31:59.983Z,6.47
2023-01-27T04:34:27.068Z,5.93
2023-01-27T04:36:53.769Z,5.70
2023-01-27T04:39:19.947Z,5.10
2023-01-27T04:41:46.334Z,5.27
2023-01-27T04:44:12.554Z,5.70
2023-01-27T04:46:38.795Z,4.90
2023-01-27T04:49:05.682Z,5.07
2023-01-27T04:51:33.080Z,4.80
2023-01-27T04:53:59.524Z,5.23
2023-01-27T04:56:27.472Z,5.50
2023-01-27T04:58:54.379Z,5.13
2023-01-27T05:01:21.028Z,5.63
2023-01-27T05:03:47.122Z,5.57
2023-01-27T05:06:13.393Z,5.60
2023-01-27T05:08:39.882Z,5.50
2023-01-27T05:11:06.362Z,5.50
2023-01-27T05:13:32.781Z,6.10
2023-01-27T05:16:08.577Z,5.60
2023-01-27T05:18:35.396Z,5.43
2023-01-27T05:21:02.755Z,5.63
2023-01-27T05:23:34.747Z,7.77
2023-01-27T05:26:03.430Z,4.97
2023-01-27T05:28:29.481Z,5.93
2023-01-27T05:31:12.127Z,4.73
2023-01-27T05:33:39.047Z,4.80
2023-01-27T05:36:06.942Z,4.63
2023-01-27T05:38:33.267Z,5.77
2023-01-27T05:41:01.377Z,5.00
2023-01-27T05:43:29.419Z,5.50
2023-01-27T05:46:25.850Z,5.23
2023-01-27T05:48:53.735Z,5.70
2023-01-27T05:51:21.887Z,6.20
2023-01-27T05:53:48.380Z,5.80
2023-01-27T05:56:18.336Z,5.73
2023-01-27T05:58:44.788Z,6.17
2023-01-27T06:01:10.799Z,5.80
2023-01-27T06:03:37.496Z,5.30
2023-01-27T06:06:04.403Z,5.60
2023-01-27T06:08:30.661Z,4.90
2023-01-27T06:10:57.879Z,5.30
2023-01-27T06:13:24.059Z,4.83
2023-01-27T06:15:50.684Z,4.93
2023-01-27T06:18:18.025Z,4.90
2023-01-27T06:20:44.739Z,5.00
2023-01-27T06:23:12.286Z,4.67
2023-01-27T06:25:40.522Z,5.47
2023-01-27T06:28:08.047Z,4.90
2023-01-27T06:30:36.727Z,4.73
2023-01-27T06:33:03.403Z,4.03
2023-01-27T06:35:29.843Z,3.63
2023-01-27T06:38:00.444Z,3.87
2023-01-27T06:40:27.666Z,3.83
2023-01-27T06:42:54.074Z,3.90
2023-01-27T06:45:20.113Z,3.60
2023-01-27T06:47:53.650Z,4.20
2023-01-27T06:50:19.755Z,3.97
2023-01-27T06:52:46.085Z,4.00
2023-01-27T06:55:12.148Z,2.97
2023-01-27T06:57:38.439Z,3.50
2023-01-27T07:00:05.195Z,3.70
2023-01-27T07:02:31.236Z,3.70
2023-01-27T07:04:57.331Z,3.57
2023-01-27T07:07:23.414Z,3.80
2023-01-27T07:09:52.641Z,3.63
2023-01-27T07:12:19.038Z,3.87
2023-01-27T07:14:45.114Z,3.73
2023-01-27T07:17:11.237Z,4.10
2023-01-27T07:19:37.346Z,3.80
2023-01-27T07:22:03.465Z,4.40
2023-01-27T07:24:29.542Z,3.33
2023-01-27T07:26:55.792Z,3.30
2023-01-27T07:29:21.919Z,3.33
2023-01-27T07:31:48.090Z,4.10
2023-01-27T07:34:14.333Z,3.20
2023-01-27T07:36:40.435Z,3.20
2023-01-27T07:39:06.463Z,3.20
2023-01-27T07:41:32.551Z,4.03
2023-01-27T07:43:58.623Z,3.17
2023-01-27T07:46:24.745Z,3.97
2023-01-27T07:48:50.815Z,3.83
2023-01-27T07:51:17.066Z,3.60
2023-01-27T07:53:43.135Z,3.97
2023-01-27T07:56:12.031Z,3.87
2023-01-27T07:58:38.799Z,3.60
2023-01-27T08:01:09.253Z,3.20
2023-01-27T08:03:35.940Z,2.57
2023-01-27T08:06:09.935Z,2.80
2023-01-27T08:08:38.041Z,2.60
2023-01-27T08:11:08.136Z,2.50
2023-01-27T08:13:35.337Z,2.13
2023-01-27T08:16:05.142Z,2.23
2023-01-27T08:18:32.866Z,2.20
2023-01-27T08:20:59.996Z,2.20
2023-01-27T08:23:26.211Z,2.03
2023-01-27T08:25:53.941Z,2.00
2023-01-27T08:28:21.080Z,1.97
2023-01-27T08:30:47.765Z,1.70
2023-01-27T08:33:13.844Z,1.90
2023-01-27T08:35:43.874Z,1.90
2023-01-27T08:38:11.699Z,1.30
2023-01-27T08:40:39.125Z,1.60
2023-01-27T08:43:05.641Z,2.10
2023-01-27T08:45:32.161Z,1.27
2023-01-27T08:47:58.567Z,0.90
2023-01-27T08:50:24.811Z,1.00
2023-01-27T08:52:51.031Z,1.13
2023-01-27T08:55:17.212Z,1.10
2023-01-27T08:57:43.278Z,1.50
2023-01-27T09:00:13.708Z,1.27
2023-01-27T09:02:40.091Z,1.63
2023-01-27T09:05:06.646Z,1.40
2023-01-27T09:07:33.633Z,1.10
2023-01-27T09:10:19.944Z,1.43
2023-01-27T09:12:46.044Z,1.80
2023-01-27T09:15:12.939Z,1.50
2023-01-27T09:17:39.142Z,1.60
2023-01-27T09:20:06.063Z,1.60
2023-01-27T09:22:32.137Z,1.80
2023-01-27T09:24:58.185Z,2.10
2023-01-27T09:27:38.005Z,1.90
2023-01-27T09:30:05.700Z,1.80
2023-01-27T09:32:31.742Z,2.60
2023-01-27T09:34:57.794Z,1.70
2023-01-27T09:37:25.899Z,1.53
2023-01-27T09:39:57.175Z,1.70
2023-01-27T09:42:54.655Z,1.70
2023-01-27T09:45:29.878Z,1.50
2023-01-27T09:48:05.024Z,1.77
2023-01-27T09:50:45.451Z,1.30
2023-01-27T09:53:20.568Z,1.30
2023-01-27T09:56:14.246Z,1.33
2023-01-27T09:58:49.919Z,1.20
2023-01-27T10:01:17.597Z,1.57
2023-01-27T10:03:54.649Z,0.90
2023-01-27T10:06:51.422Z,1.17
2023-01-27T10:10:02.247Z,1.20
2023-01-27T10:12:35.928Z,1.10
2023-01-27T10:15:01.933Z,1.47
2023-01-27T10:17:42.943Z,1.13
2023-01-27T10:20:29.773Z,1.33
2023-01-27T10:23:11.286Z,1.10
2023-01-27T10:25:37.313Z,1.10
2023-01-27T10:28:11.107Z,1.10
2023-01-27T10:30:37.741Z,0.83
2023-01-27T10:33:16.828Z,0.67
2023-01-27T10:35:54.240Z,0.70
2023-01-27T10:38:48.967Z,0.73
2023-01-27T10:41:23.971Z,0.70
2023-01-27T10:44:02.131Z,0.60
2023-01-27T10:46:46.563Z,0.50
2023-01-27T10:49:25.655Z,0.50
2023-01-27T10:52:16.052Z,0.70
2023-01-27T10:54:49.785Z,0.50
2023-01-27T10:57:39.041Z,0.60
2023-01-27T11:00:46.208Z,0.60
2023-01-27T11:03:06.004Z,0.70
2023-01-27T11:05:45.695Z,0.53
2023-01-27T11:08:16.745Z,0.50
2023-01-27T11:11:07.436Z,0.63
2023-01-27T11:13:33.713Z,0.60
2023-01-27T11:16:01.635Z,0.50
2023-01-27T11:18:29.498Z,0.60
2023-01-27T11:20:59.525Z,0.60
2023-01-27T11:23:39.626Z,0.50
2023-01-27T11:26:25.875Z,0.53
2023-01-27T11:29:22.937Z,0.50
2023-01-27T11:31:56.384Z,0.60
2023-01-27T11:34:48.472Z,0.80
2023-01-27T11:37:24.298Z,0.60
2023-01-27T11:39:50.433Z,0.60
2023-01-27T11:42:16.664Z,0.50
2023-01-27T11:44:43.607Z,0.50
2023-01-27T11:47:20.025Z,0.50
2023-01-27T11:49:48.178Z,0.60
2023-01-27T11:52:19.042Z,0.60
2023-01-27T11:54:55.466Z,0.60
2023-01-27T11:57:23.800Z,0.50
2023-01-27T11:59:53.338Z,0.50
2023-01-27T12:02:36.512Z,0.53
2023-01-27T12:05:07.761Z,0.67
2023-01-27T12:07:43.549Z,0.60
2023-01-27T12:10:33.024Z,0.60
2023-01-27T12:13:19.723Z,0.60
2023-01-27T12:15:52.825Z,0.70
2023-01-27T12:18:19.052Z,0.80
2023-01-27T12:20:55.803Z,0.60
2023-01-27T12:23:31.322Z,0.40
2023-01-27T12:25:59.773Z,0.50
2023-01-27T12:28:31.234Z,0.50
2023-01-27T12:31:05.373Z,0.40
2023-01-27T12:33:32.408Z,0.40
2023-01-27T12:36:00.425Z,0.60
2023-01-27T12:38:30.928Z,0.50
2023-01-27T12:41:00.828Z,0.47
2023-01-27T12:43:27.046Z,0.40
2023-01-27T12:46:20.715Z,0.50
2023-01-27T12:49:15.054Z,0.50
2023-01-27T12:51:53.449Z,0.60
2023-01-27T12:54:28.410Z,0.60
2023-01-27T12:56:59.759Z,0.53
2023-01-27T12:59:26.295Z,0.60
2023-01-27T13:02:19.652Z,0.60
2023-01-27T13:04:54.221Z,0.50
2023-01-27T13:07:25.057Z,0.50
2023-01-27T13:10:12.338Z,0.50
2023-01-27T13:13:04.361Z,0.50
2023-01-27T13:15:30.981Z,0.80
2023-01-27T13:17:58.802Z,0.90
2023-01-27T13:20:28.717Z,0.70
2023-01-27T13:23:07.477Z,0.70
2023-01-27T13:25:46.832Z,0.80
2023-01-27T13:28:18.131Z,0.80
2023-01-27T13:30:50.283Z,0.83
2023-01-27T13:33:22.361Z,1.20
2023-01-27T13:36:14.639Z,1.20
2023-01-27T13:39:05.963Z,0.80
2023-01-27T13:41:38.751Z,0.90
2023-01-27T13:44:23.027Z,0.90
2023-01-27T13:46:49.878Z,0.80
2023-01-27T13:49:25.909Z,0.80
2023-01-27T13:51:52.056Z,0.97
2023-01-27T13:54:18.119Z,1.20
2023-01-27T13:56:47.198Z,1.20
2023-01-27T13:59:39.486Z,1.43
2023-01-27T14:02:31.582Z,1.40
2023-01-27T14:05:16.556Z,1.90
2023-01-27T14:07:46.818Z,1.87
2023-01-27T14:10:48.544Z,1.23
2023-01-27T14:13:41.556Z,1.80
2023-01-27T14:16:15.758Z,1.57
2023-01-27T14:19:05.230Z,2.10
2023-01-27T14:21:48.454Z,1.50
2023-01-27T14:24:41.675Z,1.80
2023-01-27T14:27:13.061Z,1.30
2023-01-27T14:30:07.213Z,1.37
2023-01-27T14:32:53.780Z,1.37
2023-01-27T14:35:28.982Z,1.77
2023-01-27T14:38:37.459Z,1.10
2023-01-27T14:41:40.758Z,0.90
2023-01-27T14:44:20.833Z,1.10
2023-01-27T14:46:55.587Z,1.40
2023-01-27T14:49:32.543Z,0.90
2023-01-27T14:52:10.747Z,0.97
2023-01-27T14:55:01.534Z,1.00
2023-01-27T14:57:41.418Z,1.67
2023-01-27T15:00:21.398Z,1.53
2023-01-27T15:03:18.615Z,1.57
2023-01-27T15:06:05.985Z,1.57
2023-01-27T15:08:54.009Z,1.70
2023-01-27T15:11:20.025Z,1.00
2023-01-27T15:14:24.540Z,1.17
2023-01-27T15:17:11.737Z,1.13
2023-01-27T15:19:51.140Z,1.20
2023-01-27T15:22:35.528Z,1.70
2023-01-27T15:25:20.356Z,1.17
2023-01-27T15:27:48.161Z,1.10
2023-01-27T15:30:36.626Z,1.00
2023-01-27T15:33:02.779Z,0.90
2023-01-27T15:35:35.449Z,0.80
2023-01-27T15:38:04.564Z,0.80
2023-01-27T15:40:58.022Z,0.90
2023-01-27T15:43:24.779Z,1.20
2023-01-27T15:45:55.173Z,2.20
2023-01-27T15:48:22.622Z,1.47
2023-01-27T15:50:54.248Z,1.50
2023-01-27T15:53:31.899Z,1.73
2023-01-27T15:55:59.111Z,2.33
2023-01-27T15:58:42.700Z,2.50
2023-01-27T16:01:21.308Z,11.43
2023-01-27T16:03:48.203Z,3.10
2023-01-27T16:06:17.322Z,3.30
2023-01-27T16:08:57.100Z,2.67
2023-01-27T16:11:29.211Z,1.83
2023-01-27T16:14:10.617Z,1.70
2023-01-27T16:16:40.474Z,2.17
2023-01-27T16:19:10.894Z,2.70
2023-01-27T16:22:18.980Z,2.60
2023-01-27T16:24:50.104Z,2.10
2023-01-27T16:27:33.298Z,1.40
2023-01-27T16:30:18.075Z,1.70
2023-01-27T16:33:05.610Z,2.23
2023-01-27T16:35:38.835Z,2.27
2023-01-27T16:38:18.450Z,1.77
2023-01-27T16:40:54.896Z,1.47
2023-01-27T16:43:24.769Z,2.00
2023-01-27T16:45:52.859Z,2.30
2023-01-27T16:48:33.911Z,1.40
2023-01-27T16:51:18.584Z,1.73
2023-01-27T16:53:46.923Z,1.67
2023-01-27T16:56:39.973Z,1.60
2023-01-27T16:59:08.308Z,2.03
2023-01-27T17:01:41.601Z,1.80
2023-01-27T17:04:19.855Z,1.87
2023-01-27T17:06:47.741Z,2.40
2023-01-27T17:09:20.595Z,1.60
2023-01-27T17:11:46.636Z,1.13
2023-01-27T17:14:28.409Z,0.90
2023-01-27T17:16:57.974Z,0.87
2023-01-27T17:19:28.527Z,1.00
2023-01-27T17:22:02.123Z,1.30
2023-01-27T17:24:33.747Z,1.40
2023-01-27T17:27:34.712Z,1.43
2023-01-27T17:30:14.110Z,1.57
2023-01-27T17:32:41.964Z,1.87
2023-01-27T17:35:25.522Z,2.10
2023-01-27T17:37:52.456Z,1.77
2023-01-27T17:40:21.354Z,1.83
2023-01-27T17:42:48.497Z,2.60
2023-01-27T17:45:26.735Z,2.00
2023-01-27T17:47:53.377Z,2.20
2023-01-27T17:50:21.215Z,2.07
2023-01-27T17:52:52.508Z,1.57
2023-01-27T17:55:24.609Z,1.90
2023-01-27T17:57:57.036Z,2.10
2023-01-27T18:00:26.991Z,2.60
2023-01-27T18:02:58.490Z,1.67
2023-01-27T18:05:27.351Z,1.23
2023-01-27T18:07:53.980Z,1.30
2023-01-27T18:10:29.226Z,1.40
2023-01-27T18:12:55.339Z,1.67
2023-01-27T18:15:36.815Z,1.50
2023-01-27T18:18:22.367Z,1.50
2023-01-27T18:21:00.319Z,1.20
2023-01-27T18:23:28.979Z,1.20
2023-01-27T18:26:22.965Z,1.50
2023-01-27T18:28:52.525Z,1.47
2023-01-27T18:31:24.556Z,1.60
2023-01-27T18:33:57.560Z,1.77
2023-01-27T18:36:24.597Z,1.40
2023-01-27T18:38:50.918Z,1.27
2023-01-27T18:41:23.079Z,1.63
2023-01-27T18:43:49.130Z,1.70
2023-01-27T18:46:15.289Z,1.40
2023-01-27T18:48:41.506Z,1.67
2023-01-27T18:51:11.995Z,1.63
2023-01-27T18:53:38.044Z,1.60
2023-01-27T18:56:04.309Z,2.00
2023-01-27T18:58:30.416Z,1.90
2023-01-27T19:00:57.262Z,1.70
2023-01-27T19:03:25.921Z,1.77
2023-01-27T19:05:52.585Z,2.27
2023-01-27T19:08:20.384Z,2.63
2023-01-27T19:10:47.469Z,2.07
2023-01-27T19:13:14.123Z,1.60
2023-01-27T19:15:49.311Z,1.70
2023-01-27T19:18:30.476Z,2.07
2023-01-27T19:20:56.565Z,2.40
2023-01-27T19:23:22.696Z,2.20
2023-01-27T19:25:50.875Z,3.10
2023-01-27T19:28:36.706Z,2.50
2023-01-27T19:31:05.250Z,3.67
2023-01-27T19:33:36.370Z,3.20
2023-01-27T19:36:15.101Z,2.47
2023-01-27T19:38:41.195Z,2.90
2023-01-27T19:41:09.826Z,3.20
2023-01-27T19:43:36.889Z,2.87
2023-01-27T19:46:10.573Z,3.30
2023-01-27T19:48:36.624Z,3.27
2023-01-27T19:51:02.680Z,3.40
2023-01-27T19:53:28.713Z,3.20
2023-01-27T19:55:58.051Z,3.17
2023-01-27T19:58:26.208Z,3.20
2023-01-27T20:00:53.392Z,3.80
2023-01-27T20:03:19.869Z,3.10
2023-01-27T20:05:46.308Z,2.77
2023-01-27T20:08:15.287Z,3.20
2023-01-27T20:10:41.988Z,3.70
2023-01-27T20:13:18.845Z,2.87
2023-01-27T20:15:45.358Z,3.10
2023-01-27T20:18:16.599Z,2.33
2023-01-27T20:20:43.525Z,2.67
2023-01-27T20:23:16.160Z,2.40
2023-01-27T20:25:42.231Z,2.43
2023-01-27T20:28:09.202Z,2.50
2023-01-27T20:30:35.427Z,2.90
2023-01-27T20:33:02.762Z,2.73
2023-01-27T20:35:29.228Z,2.30
2023-01-27T20:37:55.486Z,2.27
2023-01-27T20:40:24.591Z,2.20
2023-01-27T20:42:51.193Z,2.10
2023-01-27T20:45:18.490Z,2.50
2023-01-27T20:47:52.320Z,2.20
2023-01-27T20:50:19.368Z,2.63
2023-01-27T20:52:47.569Z,2.60
2023-01-27T20:55:15.427Z,2.13
2023-01-27T20:57:41.729Z,2.60
2023-01-27T21:00:14.654Z,3.00
2023-01-27T21:02:40.739Z,2.50
2023-01-27T21:05:07.448Z,2.67
2023-01-27T21:07:33.503Z,3.00
2023-01-27T21:09:59.579Z,3.47
2023-01-27T21:12:26.646Z,3.40
2023-01-27T21:14:52.864Z,3.20
2023-01-27T21:17:18.903Z,2.83
2023-01-27T21:19:45.061Z,3.23
2023-01-27T21:22:11.127Z,2.60
2023-01-27T21:24:37.208Z,2.60
2023-01-27T21:27:03.641Z,2.40
2023-01-27T21:29:30.228Z,1.90
2023-01-27T21:31:56.420Z,1.50
2023-01-27T21:34:22.576Z,1.90
2023-01-27T21:36:48.797Z,1.87
2023-01-27T21:39:14.893Z,1.87
2023-01-27T21:41:52.652Z,1.97
2023-01-27T21:44:42.801Z,1.97
2023-01-27T21:47:11.183Z,1.80
2023-01-27T21:49:57.623Z,1.97
2023-01-27T21:52:25.319Z,2.23
2023-01-27T21:54:51.790Z,2.00
2023-01-27T21:57:18.282Z,1.70
2023-01-27T21:59:44.647Z,1.87
2023-01-27T22:02:12.102Z,1.67
2023-01-27T22:04:40.613Z,1.40
2023-01-27T22:07:09.194Z,1.20
2023-01-27T22:09:36.538Z,1.87
2023-01-27T22:12:03.876Z,1.70
2023-01-27T22:14:30.000Z,1.77
2023-01-27T22:16:56.131Z,1.77
2023-01-27T22:19:22.907Z,1.80
2023-01-27T22:21:49.185Z,1.73
2023-01-27T22:24:15.655Z,1.90
2023-01-27T22:26:41.887Z,1.40
2023-01-27T22:29:08.463Z,1.70
2023-01-27T22:31:34.861Z,1.40
2023-01-27T22:34:01.014Z,1.50
2023-01-27T22:36:27.167Z,1.63
2023-01-27T22:38:53.300Z,1.47
2023-01-27T22:41:19.388Z,1.63
2023-01-27T22:43:48.858Z,1.80
2023-01-27T22:46:15.921Z,1.50
2023-01-27T22:48:43.503Z,1.40
2023-01-27T22:51:09.548Z,1.90
2023-01-27T22:53:35.582Z,1.73
2023-01-27T22:56:02.863Z,1.53
2023-01-27T22:58:29.738Z,1.97
2023-01-27T23:00:56.255Z,2.03
2023-01-27T23:03:22.962Z,1.73
2023-01-27T23:05:49.272Z,1.60
2023-01-27T23:08:19.755Z,1.63
2023-01-27T23:10:46.882Z,1.50
2023-01-27T23:13:13.671Z,1.50
2023-01-27T23:15:39.710Z,1.43
2023-01-27T23:18:10.597Z,1.60
2023-01-27T23:20:38.955Z,1.43
2023-01-27T23:23:05.690Z,1.00
2023-01-27T23:25:32.295Z,1.30
2023-01-27T23:27:59.111Z,1.50
2023-01-27T23:30:26.000Z,1.07
2023-01-27T23:32:54.395Z,1.60
2023-01-27T23:35:20.727Z,1.60
2023-01-27T23:37:46.749Z,1.40
2023-01-27T23:40:12.990Z,1.27
2023-01-27T23:42:39.430Z,1.10
2023-01-27T23:45:06.025Z,1.57
2023-01-27T23:47:32.371Z,1.27
2023-01-27T23:49:58.489Z,1.40
2023-01-27T23:52:25.119Z,1.40
2023-01-27T23:54:51.168Z,1.33
2023-01-27T23:57:17.212Z,1.77
2023-01-27T23:59:43.372Z,1.30
